Date,TemperatureHighF,TemperatureAvgF,TemperatureLowF,DewpointHighF,DewpointAvgF,DewpointLowF,HumidityHigh,HumidityAvg,HumidityLow,PressureMaxIn,PressureMinIn,WindSpeedMaxMPH,WindSpeedAvgMPH,GustSpeedMaxMPH,PrecipitationSumIn
2013-1-1,20.2,15.5,1.3,-0.1,-6.9,-10.4,76,37,27,30.35,30.07,7,2,22,0.00
2013-1-2,21.3,15.9,10.0,-4.3,-7.7,-10.9,41,34,27,30.39,30.20,5,1,20,0.00
2013-1-3,40.5,14.6,-1.4,-3.1,-9.2,-21.6,59,38,9,30.58,30.17,1,0,5,0.00
2013-1-4,44.5,19.9,8.3,9.9,2.2,-4.2,66,48,21,30.46,30.03,2,0,2,0.00
2013-1-5,37.6,22.7,6.9,6.6,-5.4,-15.3,56,32,11,30.41,30.05,7,1,21,0.00
2013-1-6,47.9,31.3,7.6,-2.7,-10.4,-21.0,38,19,6,30.34,29.71,10,2,20,0.00
2013-1-7,45.1,37.6,25.8,-0.6,-9.2,-19.5,30,14,6,29.91,29.65,6,2,17,0.00
2013-1-8,34.7,32.4,30.0,13.2,9.2,-9.7,45,38,14,30.14,29.62,12,5,28,0.00
2013-1-9,51.9,37.2,26.4,10.2,5.7,0.5,45,28,13,30.29,29.85,3,0,5,0.00
2013-1-10,45.8,32.1,21.3,11.4,2.1,-6.6,51,31,11,29.85,29.37,7,1,14,0.00
2013-1-11,33.8,19.2,9.2,19.3,0.3,-13.5,76,44,24,29.84,29.15,14,5,45,0.00
2013-1-12,14.3,5.7,-4.3,-4.9,-14.1,-18.6,72,42,24,30.25,29.85,7,1,15,0.00
2013-1-13,10.7,-1.1,-8.9,-2.9,-10.3,-16.9,71,65,45,30.45,30.18,4,0,10,0.00
2013-1-14,12.4,-0.6,-12.0,-2.5,-16.0,-20.5,73,51,26,30.57,30.18,7,1,13,0.00
2013-1-15,31.9,21.7,6.5,12.9,-1.3,-21.3,45,36,24,30.31,30.05,9,2,18,0.00
2013-1-16,43.5,31.3,17.2,14.2,11.6,8.4,69,45,28,30.36,30.01,8,2,18,0.00
2013-1-17,47.9,28.4,10.0,14.7,5.0,-4.4,76,44,15,30.65,30.02,9,1,29,0.00
2013-1-18,41.9,37.4,34.9,1.4,-1.1,-3.5,21,19,16,30.10,29.94,10,5,27,0.00
2013-1-19,41.3,36.1,34.1,-0.2,-3.2,-7.8,22,18,12,30.12,29.93,8,3,20,0.00
2013-1-20,41.9,35.4,24.1,6.4,-2.6,-10.0,45,20,13,30.16,29.96,9,2,25,0.00
2013-1-21,41.8,36.3,31.9,4.8,-0.4,-11.0,28,21,11,30.15,29.93,11,4,25,0.00
2013-1-22,48.6,42.8,37.9,-8.4,-14.7,-23.2,13,8,5,30.03,29.87,12,6,24,0.00
2013-1-23,52.6,47.4,42.3,-2.9,-11.7,-27.0,14,8,4,29.97,29.88,11,5,30,0.00
2013-1-24,48.5,43.4,39.2,23.3,6.5,-9.3,50,26,10,29.93,29.74,12,5,24,0.00
2013-1-25,45.4,41.0,37.9,24.2,21.6,16.3,52,46,39,29.99,29.82,12,4,26,0.00
2013-1-26,50.1,40.2,30.4,29.2,21.9,16.1,87,50,27,29.86,29.57,8,1,16,0.00
2013-1-27,43.9,39.0,26.0,28.0,18.0,12.4,89,44,30,29.64,29.51,10,3,28,0.00
2013-1-28,41.9,31.6,19.7,24.5,13.7,4.4,80,49,28,29.62,29.41,7,1,22,0.00
2013-1-29,22.2,15.2,5.0,14.3,-5.7,-11.4,80,40,24,30.09,29.56,8,2,17,0.00
2013-1-30,27.2,20.0,8.8,11.4,2.4,-10.4,58,46,31,30.02,29.82,12,6,26,0.00
2013-1-31,32.5,28.9,25.7,14.1,10.6,6.8,61,46,34,30.11,29.82,14,7,32,0.00